Terminal Aerodrome Forecast
Issued by NWS Cleveland, OH

Home | Current Version | Previous Version | Text Only | Print | Product List | Glossary On
Versions: 1 2 3 4 5 6 7 8 9 10 11 12 13 14 15 16 17 18 19 20 21 22 23 24 25
000
FTUS41 KCLE 010500
TAFMFD
TAF
KMFD 010539Z 0106/0206 01003KT 1SM BR SCT003
      TEMPO 0106/0108 1/2SM FG OVC003
     FM010800 03003KT 1/2SM FG VV002
     FM011400 05003KT 2SM BR OVC005
     FM011500 05005KT 4SM BR BKN008
     FM011600 07005KT P6SM BKN015
     FM011700 07005KT P6SM BKN025
     FM011900 09005KT P6SM BKN035=

USA.gov is the U.S. government's official web portal to all federal, state and local government web resources and services.